Time,TemperatureF,DewpointF,PressureIn,WindDirection,WindDirectionDegrees,WindSpeedMPH,WindSpeedGustMPH,Humidity,HourlyPrecipIn,Conditions,Clouds,dailyrainin,SolarRadiationWatts/m^2,SoftwareType,DateUTC
2013-04-04 00:14:00,49.3,31.0,31.52,NNE,32,1.0,6.0,49,0.00,,,0.00,0,weatherlink.com 1.10,2013-04-04 06:14:00,
2013-04-04 00:59:00,49.0,31.0,31.52,North,11,2.0,4.0,50,0.00,,,0.00,0,weatherlink.com 1.10,2013-04-04 06:59:00,
2013-04-04 01:14:00,49.1,30.0,31.52,NNE,32,1.0,3.0,48,0.00,,,0.00,0,weatherlink.com 1.10,2013-04-04 07:14:00,
2013-04-04 01:29:00,49.2,30.0,31.52,NNW,340,0.0,5.0,48,0.00,,,0.00,0,weatherlink.com 1.10,2013-04-04 07:29:00,
2013-04-04 01:59:00,47.6,31.0,31.53,North,355,0.0,1.0,52,0.00,,,0.00,0,weatherlink.com 1.10,2013-04-04 07:59:00,
2013-04-04 02:14:00,47.1,30.0,31.53,North,355,0.0,1.0,52,0.00,,,0.00,0,weatherlink.com 1.10,2013-04-04 08:14:00,
2013-04-04 02:29:00,46.9,30.0,31.53,NE,49,0.0,3.0,53,0.00,,,0.00,0,weatherlink.com 1.10,2013-04-04 08:29:00,
2013-04-04 02:44:00,46.9,30.0,31.53,NE,49,0.0,1.0,53,0.00,,,0.00,0,weatherlink.com 1.10,2013-04-04 08:44:00,
2013-04-04 02:59:00,47.0,30.0,31.53,NE,49,0.0,1.0,53,0.00,,,0.00,0,weatherlink.com 1.10,2013-04-04 08:59:00,
2013-04-04 03:29:00,46.5,30.0,31.53,ESE,120,0.0,3.0,53,0.00,,,0.00,0,weatherlink.com 1.10,2013-04-04 09:29:00,
2013-04-04 03:59:00,45.9,30.0,31.52,ESE,121,0.0,2.0,54,0.00,,,0.00,0,weatherlink.com 1.10,2013-04-04 09:59:00,
2013-04-04 04:14:00,46.4,30.0,31.52,ESE,121,0.0,0.0,53,0.00,,,0.00,0,weatherlink.com 1.10,2013-04-04 10:14:00,
2013-04-04 04:29:00,45.4,30.0,31.52,ESE,121,0.0,0.0,55,0.00,,,0.00,0,weatherlink.com 1.10,2013-04-04 10:29:00,
2013-04-04 04:44:00,45.0,30.0,31.52,ESE,121,0.0,1.0,56,0.00,,,0.00,0,weatherlink.com 1.10,2013-04-04 10:44:00,
2013-04-04 04:59:00,44.6,30.0,31.51,ESE,121,0.0,1.0,57,0.00,,,0.00,0,weatherlink.com 1.10,2013-04-04 10:59:00,
2013-04-04 05:14:00,44.5,30.0,31.51,ESE,121,2.0,3.0,58,0.00,,,0.00,0,weatherlink.com 1.10,2013-04-04 11:14:00,
2013-04-04 05:29:00,44.4,30.0,31.51,SSE,159,2.0,3.0,58,0.00,,,0.00,0,weatherlink.com 1.10,2013-04-04 11:29:00,
2013-04-04 05:44:00,44.5,30.0,31.50,SSE,159,2.0,3.0,58,0.00,,,0.00,0,weatherlink.com 1.10,2013-04-04 11:44:00,
2013-04-04 05:59:00,44.9,30.0,31.50,SSE,159,3.0,4.0,57,0.00,,,0.00,0,weatherlink.com 1.10,2013-04-04 11:59:00,
2013-04-04 06:29:00,44.7,31.0,31.51,SSE,161,0.0,2.0,58,0.00,,,0.00,0,weatherlink.com 1.10,2013-04-04 12:29:00,
2013-04-04 06:44:00,43.5,31.0,31.51,SSW,205,4.0,7.0,61,0.00,,,0.00,0,weatherlink.com 1.10,2013-04-04 12:44:00,
2013-04-04 06:59:00,42.6,31.0,31.50,SSE,167,3.0,5.0,64,0.00,,,0.00,0,weatherlink.com 1.10,2013-04-04 12:59:00,
2013-04-04 07:14:00,42.3,31.0,31.50,South,176,0.0,3.0,64,0.00,,,0.00,0,weatherlink.com 1.10,2013-04-04 13:14:00,
2013-04-04 07:30:00,41.3,31.0,31.50,South,176,0.0,3.0,66,0.00,,,0.00,14,weatherlink.com 1.10,2013-04-04 13:30:00,
2013-04-04 07:45:00,40.6,31.0,31.50,South,176,0.0,3.0,68,0.00,,,0.00,26,weatherlink.com 1.10,2013-04-04 13:45:00,
2013-04-04 08:15:00,40.6,31.0,31.50,South,176,0.0,1.0,69,0.00,,,0.00,63,weatherlink.com 1.10,2013-04-04 14:15:00,
2013-04-04 08:30:00,41.4,32.0,31.49,South,176,0.0,2.0,70,0.00,,,0.00,97,weatherlink.com 1.10,2013-04-04 14:30:00,
2013-04-04 08:45:00,41.1,32.0,31.50,South,176,2.0,3.0,70,0.00,,,0.00,102,weatherlink.com 1.10,2013-04-04 14:45:00,
2013-04-04 09:15:00,43.1,34.0,31.49,SSW,210,3.0,5.0,71,0.00,,,0.00,230,weatherlink.com 1.10,2013-04-04 15:15:00,
2013-04-04 09:30:00,44.0,35.0,31.48,SW,215,3.0,4.0,71,0.00,,,0.00,239,weatherlink.com 1.10,2013-04-04 15:30:00,
2013-04-04 09:45:00,44.7,35.0,31.48,South,191,3.0,5.0,70,0.00,,,0.00,279,weatherlink.com 1.10,2013-04-04 15:45:00,
2013-04-04 10:00:00,44.4,36.0,31.47,South,182,1.0,5.0,71,0.00,,,0.00,272,weatherlink.com 1.10,2013-04-04 16:00:00,
2013-04-04 10:15:00,44.1,36.0,31.47,South,182,0.0,5.0,73,0.00,,,0.00,285,weatherlink.com 1.10,2013-04-04 16:15:00,
2013-04-04 10:30:00,43.9,36.0,31.46,South,182,0.0,3.0,75,0.00,,,0.00,297,weatherlink.com 1.10,2013-04-04 16:30:00,
2013-04-04 11:15:00,46.8,37.0,31.44,South,191,5.0,8.0,69,0.00,,,0.00,348,weatherlink.com 1.10,2013-04-04 17:15:00,
2013-04-04 11:30:00,47.4,37.0,31.44,SSW,201,6.0,7.0,68,0.00,,,0.00,388,weatherlink.com 1.10,2013-04-04 17:30:00,
2013-04-04 11:45:00,48.3,38.0,31.43,SSW,209,8.0,9.0,67,0.00,,,0.00,510,weatherlink.com 1.10,2013-04-04 17:45:00,
2013-04-04 12:00:00,50.0,39.0,31.41,SW,232,7.0,9.0,65,0.00,,,0.00,571,weatherlink.com 1.10,2013-04-04 18:00:00,
2013-04-04 12:15:00,52.5,39.0,31.40,SSW,210,7.0,11.0,60,0.00,,,0.00,589,weatherlink.com 1.10,2013-04-04 18:15:00,
2013-04-04 12:30:00,55.2,34.0,31.39,SSW,202,8.0,17.0,45,0.00,,,0.00,696,weatherlink.com 1.10,2013-04-04 18:30:00,
2013-04-04 12:45:00,56.6,36.0,31.38,SW,218,11.0,18.0,46,0.00,,,0.00,738,weatherlink.com 1.10,2013-04-04 18:45:00,
2013-04-04 13:01:00,55.9,37.0,31.36,SSE,165,5.0,16.0,49,0.00,,,0.00,439,weatherlink.com 1.10,2013-04-04 19:01:00,
2013-04-04 13:16:00,56.6,35.0,31.35,South,172,7.0,16.0,44,0.00,,,0.00,541,weatherlink.com 1.10,2013-04-04 19:16:00,
2013-04-04 14:46:00,59.2,35.0,31.30,SSE,161,8.0,16.0,41,0.00,,,0.00,388,weatherlink.com 1.10,2013-04-04 20:46:00,
2013-04-04 15:01:00,58.9,35.0,31.30,SSW,198,9.0,14.0,41,0.00,,,0.00,265,weatherlink.com 1.10,2013-04-04 21:01:00,
2013-04-04 15:16:00,58.3,36.0,31.30,SW,215,8.0,9.0,44,0.00,,,0.00,125,weatherlink.com 1.10,2013-04-04 21:16:00,
2013-04-04 15:32:00,58.2,37.0,31.29,SW,216,7.0,8.0,45,0.00,,,0.00,244,weatherlink.com 1.10,2013-04-04 21:32:00,
2013-04-04 15:46:00,58.0,37.0,31.28,SW,217,3.0,7.0,45,0.00,,,0.00,93,weatherlink.com 1.10,2013-04-04 21:46:00,
2013-04-04 16:01:00,57.9,35.0,31.27,SSW,193,3.0,6.0,43,0.00,,,0.00,109,weatherlink.com 1.10,2013-04-04 22:01:00,
2013-04-04 16:16:00,58.2,36.0,31.26,SW,219,0.0,3.0,44,0.00,,,0.00,134,weatherlink.com 1.10,2013-04-04 22:16:00,
2013-04-04 16:31:00,58.4,36.0,31.25,SW,221,6.0,8.0,44,0.00,,,0.00,171,weatherlink.com 1.10,2013-04-04 22:31:00,
2013-04-04 16:46:00,58.7,37.0,31.24,SSW,194,6.0,11.0,44,0.00,,,0.00,223,weatherlink.com 1.10,2013-04-04 22:46:00,
2013-04-04 17:01:00,59.2,36.0,31.24,South,178,14.0,17.0,43,0.00,,,0.00,155,weatherlink.com 1.10,2013-04-04 23:01:00,
2013-04-04 17:16:00,58.7,37.0,31.24,South,182,14.0,19.0,45,0.00,,,0.00,113,weatherlink.com 1.10,2013-04-04 23:16:00,
2013-04-04 17:31:00,58.0,38.0,31.24,SSE,167,6.0,18.0,47,0.00,,,0.00,91,weatherlink.com 1.10,2013-04-04 23:31:00,
2013-04-04 18:01:00,57.4,38.0,31.23,South,182,6.0,13.0,48,0.00,,,0.00,46,weatherlink.com 1.10,2013-04-05 00:01:00,
2013-04-04 18:16:00,56.3,39.0,31.23,NW,320,6.0,9.0,53,0.00,,,0.00,44,weatherlink.com 1.10,2013-04-05 00:16:00,
2013-04-04 18:31:00,54.2,40.0,31.23,NE,45,0.0,7.0,59,0.00,,,0.00,30,weatherlink.com 1.10,2013-04-05 00:31:00,
2013-04-04 18:46:00,53.1,39.0,31.23,NNW,348,7.0,8.0,60,0.00,,,0.00,26,weatherlink.com 1.10,2013-04-05 00:46:00,
2013-04-04 19:01:00,52.1,41.0,31.24,North,5,3.0,6.0,65,0.00,,,0.00,14,weatherlink.com 1.10,2013-04-05 01:01:00,
2013-04-04 19:16:00,51.7,41.0,31.23,North,5,0.0,8.0,66,0.00,,,0.00,11,weatherlink.com 1.10,2013-04-05 01:16:00,
2013-04-04 19:31:00,51.1,41.0,31.23,NNW,347,4.0,10.0,68,0.00,,,0.00,5,weatherlink.com 1.10,2013-04-05 01:31:00,
2013-04-04 20:01:00,50.8,41.0,31.23,NE,36,1.0,5.0,68,0.00,,,0.00,0,weatherlink.com 1.10,2013-04-05 02:01:00,
2013-04-04 20:16:00,50.5,40.0,31.23,ENE,70,3.0,5.0,68,0.00,,,0.00,0,weatherlink.com 1.10,2013-04-05 02:16:00,
2013-04-04 20:31:00,52.6,39.0,31.22,SSE,153,9.0,14.0,61,0.00,,,0.00,0,weatherlink.com 1.10,2013-04-05 02:31:00,
2013-04-04 20:46:00,52.9,39.0,31.22,SE,144,9.0,15.0,59,0.00,,,0.00,0,weatherlink.com 1.10,2013-04-05 02:46:00,
2013-04-04 21:01:00,52.6,39.0,31.23,South,169,10.0,16.0,61,0.00,,,0.00,0,weatherlink.com 1.10,2013-04-05 03:01:00,
2013-04-04 21:16:00,52.2,39.0,31.24,SSE,162,13.0,19.0,61,0.00,,,0.00,0,weatherlink.com 1.10,2013-04-05 03:16:00,
2013-04-04 21:31:00,51.4,39.0,31.25,SSE,164,11.0,22.0,64,0.00,,,0.00,0,weatherlink.com 1.10,2013-04-05 03:31:00,
2013-04-04 21:46:00,50.8,40.0,31.25,SE,142,17.0,22.0,66,0.00,,,0.00,0,weatherlink.com 1.10,2013-04-05 03:46:00,
2013-04-04 22:01:00,50.4,39.0,31.26,SSE,163,17.0,21.0,66,0.00,,,0.00,0,weatherlink.com 1.10,2013-04-05 04:01:00,
2013-04-04 22:17:00,49.9,40.0,31.26,SSE,153,10.0,17.0,68,0.00,,,0.00,0,weatherlink.com 1.10,2013-04-05 04:17:00,
2013-04-04 22:31:00,49.6,39.0,31.27,SSE,165,14.0,16.0,68,0.00,,,0.00,0,weatherlink.com 1.10,2013-04-05 04:31:00,
2013-04-04 22:46:00,49.6,39.0,31.27,SSE,161,10.0,16.0,68,0.00,,,0.00,0,weatherlink.com 1.10,2013-04-05 04:46:00,
2013-04-04 23:01:00,49.2,39.0,31.26,SSE,162,5.0,16.0,69,0.00,,,0.00,0,weatherlink.com 1.10,2013-04-05 05:01:00,
2013-04-04 23:16:00,48.6,40.0,31.26,SSE,165,6.0,11.0,71,0.00,,,0.00,0,weatherlink.com 1.10,2013-04-05 05:16:00,
2013-04-04 23:31:00,48.2,40.0,31.26,South,169,8.0,10.0,73,0.00,,,0.00,0,weatherlink.com 1.10,2013-04-05 05:31:00,